Time;durP1;ratioP1;P1;durP2;ratioP2;P2;SDS_P1;SDS_P2;PMS_P1;PMS_P2;Temp;Humidity;BMP_temperature;BMP_pressure;BME280_temperature;BME280_humidity;BME280_pressure;Samples;Min_cycle;Max_cycle;Signal;HPM_P1;HPM_P2
2023/08/03 00:00:35;;;;;;;3.00;2.40;;;17.80;97.70;;;17.70;89.41;96514.59;4936998;29;20463;-77
2023/08/03 00:03:03;;;;;;;3.23;2.37;;;17.80;97.90;;;17.64;88.33;96496.66;4939539;28;20549;-78
2023/08/03 00:05:30;;;;;;;4.70;2.30;;;17.70;97.30;;;17.62;89.75;96531.66;4937359;28;20461;-75
2023/08/03 00:07:57;;;;;;;3.60;2.83;;;17.60;97.90;;;17.71;88.77;96529.88;4939095;29;20487;-76
2023/08/03 00:10:24;;;;;;;3.03;2.30;;;17.60;97.90;;;17.53;89.25;96524.16;4947687;29;20486;-76
2023/08/03 00:12:52;;;;;;;1.90;1.70;;;17.60;97.70;;;17.54;88.46;96541.31;4938941;29;20463;-76
2023/08/03 00:15:20;;;;;;;1.83;1.43;;;17.70;96.80;;;17.55;88.40;96532.84;4942609;28;20492;-76
2023/08/03 00:17:48;;;;;;;2.10;1.43;;;17.70;96.50;;;17.46;87.11;96523.69;4948427;28;20462;-75
2023/08/03 00:20:17;;;;;;;3.73;1.93;;;17.70;95.90;;;17.60;86.78;96517.47;4952605;28;20818;-76
2023/08/03 00:22:46;;;;;;;2.70;1.70;;;17.80;95.50;;;17.60;88.01;96540.16;4939959;29;20468;-75
2023/08/03 00:25:14;;;;;;;1.73;1.63;;;17.70;95.80;;;17.73;85.85;96544.03;4946871;29;20461;-75
2023/08/03 00:27:41;;;;;;;3.20;1.70;;;17.70;94.90;;;17.66;85.66;96538.94;4949493;28;20462;-76
2023/08/03 00:30:08;;;;;;;1.67;1.20;;;17.80;94.50;;;17.91;82.71;96539.66;4939978;28;20483;-75
2023/08/03 00:32:36;;;;;;;2.90;1.60;;;17.80;93.80;;;17.85;82.29;96540.81;4941739;28;20999;-77
2023/08/03 00:35:05;;;;;;;3.47;1.80;;;17.80;93.20;;;17.78;83.13;96541.22;4956011;28;20475;-76
2023/08/03 00:37:33;;;;;;;2.17;1.30;;;17.90;93.30;;;17.81;81.95;96539.81;4946793;28;20495;-76
2023/08/03 00:40:00;;;;;;;2.87;1.47;;;17.90;92.70;;;17.75;81.02;96519.97;4957948;28;20464;-78
2023/08/03 00:42:27;;;;;;;3.23;1.53;;;18.00;92.40;;;17.86;81.07;96544.38;4941196;29;20568;-79
2023/08/03 00:44:54;;;;;;;1.73;1.20;;;17.90;92.40;;;17.97;80.14;96543.91;4942101;29;20500;-79
2023/08/03 00:47:22;;;;;;;2.93;1.17;;;17.90;92.30;;;17.99;79.62;96538.94;4944376;28;20450;-79
2023/08/03 00:49:49;;;;;;;3.17;2.10;;;18.00;92.00;;;18.07;80.43;96534.75;4941629;29;20581;-79
2023/08/03 00:52:18;;;;;;;2.40;1.20;;;17.90;92.40;;;18.13;80.08;96540.94;4932194;29;20497;-79
2023/08/03 00:54:45;;;;;;;1.90;1.80;;;18.00;92.60;;;17.98;79.94;96540.06;4941080;29;21228;-79
2023/08/03 00:57:12;;;;;;;3.20;1.70;;;17.90;92.20;;;17.94;80.44;96532.75;4939562;29;20463;-79
2023/08/03 00:59:40;;;;;;;1.67;1.57;;;17.90;92.30;;;17.91;80.19;96533.34;4937541;28;20466;-78
2023/08/03 01:02:08;;;;;;;2.63;1.87;;;17.90;92.10;;;17.90;80.30;96534.47;4961213;29;20833;-79
2023/08/03 01:04:35;;;;;;;2.13;1.80;;;17.90;92.10;;;17.90;79.52;96531.75;4977540;28;20487;-77
2023/08/03 01:07:03;;;;;;;2.30;1.60;;;17.90;92.00;;;17.91;79.62;96525.16;4963253;28;20459;-78
2023/08/03 01:09:31;;;;;;;3.07;1.40;;;17.90;91.90;;;17.94;78.13;96521.81;4960163;29;20461;-78
2023/08/03 01:11:58;;;;;;;2.03;1.77;;;18.00;91.30;;;17.94;77.29;96524.56;4958918;28;20476;-79
2023/08/03 01:14:26;;;;;;;2.23;1.90;;;18.10;90.90;;;17.96;77.09;96522.34;4946525;28;20471;-80
2023/08/03 01:16:53;;;;;;;2.43;1.23;;;18.10;90.70;;;17.94;76.29;96522.66;4945811;29;20610;-79
2023/08/03 01:19:20;;;;;;;1.60;1.50;;;18.20;90.30;;;18.35;76.39;96526.59;4939998;29;20584;-78
2023/08/03 01:21:48;;;;;;;4.50;1.73;;;18.20;90.60;;;18.31;75.76;96524.75;4940275;29;20470;-80
2023/08/03 01:24:17;;;;;;;5.00;1.60;;;18.30;90.60;;;18.25;74.94;96515.84;4945684;28;21141;-79
2023/08/03 01:26:44;;;;;;;3.00;1.70;;;18.20;90.10;;;18.33;74.10;96528.81;4947125;29;20968;-77
2023/08/03 01:29:11;;;;;;;2.43;1.83;;;18.30;89.80;;;18.27;74.19;96524.53;4938806;29;20984;-77
2023/08/03 01:31:39;;;;;;;3.30;1.50;;;18.30;89.80;;;18.14;73.95;96514.44;4948048;28;20555;-79
2023/08/03 01:34:08;;;;;;;1.90;1.33;;;18.30;89.70;;;18.20;74.70;96519.50;4946268;28;21132;-79
2023/08/03 01:36:35;;;;;;;10.80;1.67;;;18.20;90.00;;;18.44;74.33;96517.69;4941351;29;20571;-80
2023/08/03 01:39:10;;;;;;;2.23;1.47;;;18.30;90.20;;;18.61;74.56;96520.63;4941582;28;20515;-78
2023/08/03 01:41:41;;;;;;;2.73;1.20;;;18.40;90.20;;;18.24;75.05;96508.75;4954141;28;20514;-77
2023/08/03 01:44:27;;;;;;;3.70;1.30;;;18.40;90.10;;;18.22;75.65;96511.81;4937119;28;20483;-77
2023/08/03 01:46:56;;;;;;;4.77;1.90;;;18.20;90.20;;;18.37;76.98;96527.09;4938021;29;20482;-77
2023/08/03 01:49:25;;;;;;;1.13;1.03;;;18.30;90.70;;;18.34;75.44;96516.75;4939710;28;20472;-78
2023/08/03 01:51:52;;;;;;;1.63;1.10;;;18.30;90.30;;;17.77;75.99;96460.38;4943936;29;20466;-77
2023/08/03 01:54:19;;;;;;;4.23;1.50;;;18.20;90.40;;;17.85;76.04;96467.06;4938068;29;20989;-77
2023/08/03 01:56:48;;;;;;;2.50;1.43;;;18.10;90.40;;;18.15;76.75;96535.19;4944380;28;20571;-77
2023/08/03 01:59:15;;;;;;;2.03;1.40;;;18.10;90.60;;;18.14;76.47;96530.81;4939176;29;20454;-77
2023/08/03 02:01:43;;;;;;;1.57;1.30;;;18.10;90.50;;;18.09;76.07;96527.03;4933892;29;20475;-76
2023/08/03 02:04:10;;;;;;;2.00;1.27;;;18.10;90.30;;;18.14;76.18;96539.81;4938198;29;20467;-76
2023/08/03 02:06:38;;;;;;;3.40;1.33;;;18.10;90.40;;;18.03;75.87;96532.91;4934838;29;20469;-78
2023/08/03 02:09:05;;;;;;;5.63;1.97;;;18.00;90.30;;;18.01;74.93;96527.72;4932856;29;20463;-76
2023/08/03 02:11:34;;;;;;;2.13;1.40;;;18.00;90.10;;;17.92;75.75;96541.25;4935248;29;20489;-77
2023/08/03 02:14:03;;;;;;;3.30;1.77;;;17.80;90.20;;;17.80;75.92;96547.19;4938142;28;20510;-78
2023/08/03 02:16:31;;;;;;;6.83;1.20;;;17.80;90.20;;;17.73;75.88;96543.22;4932524;29;20618;-79
2023/08/03 02:18:58;;;;;;;3.10;1.90;;;17.70;90.20;;;17.67;75.77;96545.25;4934534;29;21023;-78
2023/08/03 02:21:25;;;;;;;3.73;1.30;;;17.60;90.10;;;17.63;76.69;96541.47;4933379;29;20954;-79
2023/08/03 02:23:53;;;;;;;2.80;2.57;;;17.60;90.50;;;17.74;75.31;96533.91;4934479;29;20481;-79
2023/08/03 02:26:20;;;;;;;1.83;1.17;;;17.60;90.10;;;17.81;74.09;96550.75;4935638;29;20971;-77
2023/08/03 02:28:48;;;;;;;3.30;1.37;;;17.70;89.70;;;17.73;74.03;96549.50;4937436;29;20518;-76
2023/08/03 02:31:16;;;;;;;3.70;1.47;;;17.70;89.50;;;17.75;73.99;96552.75;4937937;29;20513;-77
2023/08/03 02:33:43;;;;;;;2.30;1.43;;;17.60;89.40;;;17.72;74.11;96558.81;4945318;29;20499;-78
2023/08/03 02:36:11;;;;;;;7.10;2.43;;;17.50;89.40;;;17.69;73.02;96553.94;4946130;29;20505;-77
2023/08/03 02:38:38;;;;;;;3.20;1.50;;;17.50;88.70;;;17.52;73.23;96547.09;4939349;29;20459;-78
2023/08/03 02:41:05;;;;;;;5.00;1.20;;;17.40;88.60;;;17.37;73.03;96544.59;4935110;29;20466;-78
2023/08/03 02:43:33;;;;;;;5.13;1.53;;;17.40;88.50;;;17.36;73.41;96557.41;4939967;29;20724;-79
2023/08/03 02:46:00;;;;;;;2.60;1.50;;;17.30;88.30;;;17.41;73.47;96560.06;4942482;28;20459;-78
2023/08/03 02:48:29;;;;;;;2.80;1.87;;;17.30;88.50;;;17.41;72.54;96553.81;4938494;28;20545;-78
2023/08/03 02:50:56;;;;;;;3.43;1.10;;;17.40;87.90;;;17.54;71.38;96558.53;4942163;29;20465;-78
2023/08/03 02:53:23;;;;;;;5.57;1.67;;;17.50;87.20;;;17.80;70.43;96554.56;4940848;28;20530;-78
2023/08/03 02:55:52;;;;;;;4.10;1.40;;;17.70;86.50;;;17.86;68.86;96549.84;4941716;28;20481;-77
2023/08/03 02:58:19;;;;;;;3.47;1.40;;;17.90;85.60;;;17.98;68.88;96559.19;4941880;29;20467;-77
2023/08/03 03:00:46;;;;;;;3.67;1.17;;;17.90;85.70;;;17.98;68.86;96548.25;4952737;28;20468;-78
2023/08/03 03:03:13;;;;;;;4.47;0.90;;;18.00;85.50;;;18.05;69.07;96549.84;4921708;29;20558;-78
2023/08/03 03:05:42;;;;;;;2.30;1.20;;;18.00;85.60;;;18.01;69.11;96546.84;4947757;29;20531;-78
2023/08/03 03:08:09;;;;;;;2.93;1.50;;;18.00;85.30;;;18.02;68.91;96556.69;4939694;28;20521;-77
2023/08/03 03:10:36;;;;;;;3.80;1.40;;;17.90;85.10;;;17.94;68.84;96549.97;4958292;28;20460;-78
2023/08/03 03:13:03;;;;;;;4.47;1.20;;;17.90;85.40;;;17.88;68.11;96551.16;4934414;29;20981;-76
2023/08/03 03:15:31;;;;;;;4.40;1.40;;;17.80;84.80;;;17.62;68.86;96515.25;4942253;28;20490;-76
2023/08/03 03:17:59;;;;;;;3.70;0.97;;;17.80;85.30;;;17.46;67.95;96480.03;4933916;29;20462;-78
2023/08/03 03:20:26;;;;;;;4.70;1.50;;;17.80;84.90;;;18.01;67.21;96559.69;4941035;28;20883;-80
2023/08/03 03:22:55;;;;;;;3.60;1.23;;;17.80;84.60;;;17.80;67.62;96558.09;4933740;29;22401;-77
2023/08/03 03:25:22;;;;;;;2.20;1.03;;;17.80;84.20;;;17.82;67.97;96561.38;4939007;29;20886;-77
2023/08/03 03:27:49;;;;;;;6.63;1.70;;;17.80;84.30;;;17.88;67.48;96555.81;4938491;28;20464;-77
2023/08/03 03:30:17;;;;;;;3.03;1.47;;;17.90;84.10;;;17.78;68.52;96546.66;4941239;29;20526;-78
2023/08/03 03:32:45;;;;;;;3.10;1.20;;;17.90;84.40;;;17.89;68.04;96563.69;4939014;29;20576;-77
2023/08/03 03:35:12;;;;;;;3.73;1.37;;;18.00;84.40;;;18.09;68.69;96568.03;4940282;28;21100;-78
2023/08/03 03:37:40;;;;;;;6.80;1.57;;;18.00;85.50;;;18.07;67.17;96564.81;4954596;28;20473;-77
2023/08/03 03:40:10;;;;;;;3.60;1.50;;;18.00;84.10;;;17.80;69.32;96565.50;4937548;29;20945;-77
2023/08/03 03:42:37;;;;;;;2.13;1.40;;;17.90;84.90;;;17.73;69.20;96565.88;4934660;29;20462;-77
2023/08/03 03:45:05;;;;;;;5.40;1.70;;;17.80;84.80;;;17.55;69.19;96568.34;4927630;29;20458;-78
2023/08/03 03:47:32;;;;;;;4.87;2.43;;;17.70;84.60;;;17.50;69.27;96573.84;4936992;28;20467;-78
2023/08/03 03:50:00;;;;;;;4.40;1.50;;;17.60;84.70;;;17.40;71.00;96568.56;4939881;29;20467;-77
2023/08/03 03:52:27;;;;;;;3.50;1.40;;;17.50;85.80;;;17.30;70.70;96568.72;4937028;28;20452;-79
2023/08/03 03:54:54;;;;;;;4.73;1.43;;;17.40;85.50;;;17.36;70.72;96589.34;4966384;28;20491;-78
2023/08/03 03:57:23;;;;;;;3.90;1.40;;;17.30;85.50;;;16.88;70.78;96525.56;4966631;28;20529;-79
2023/08/03 03:59:50;;;;;;;3.90;1.43;;;17.30;85.70;;;17.28;72.15;96583.47;4953238;29;20582;-78
2023/08/03 04:02:17;;;;;;;1.80;1.40;;;17.30;86.30;;;17.37;71.72;96585.53;4947138;29;20773;-79
2023/08/03 04:04:44;;;;;;;3.10;1.50;;;17.40;86.20;;;17.58;70.21;96591.50;4934633;28;20510;-78
2023/08/03 04:07:12;;;;;;;3.83;1.57;;;17.50;85.70;;;17.46;69.77;96578.28;4929503;29;20468;-78
2023/08/03 04:09:39;;;;;;;2.87;1.70;;;17.60;85.40;;;17.70;70.58;96582.88;4939458;29;21126;-78
2023/08/03 04:12:07;;;;;;;5.07;1.70;;;17.70;85.90;;;17.74;70.28;96594.00;4944829;28;20472;-78
2023/08/03 04:14:35;;;;;;;4.50;1.43;;;17.70;85.40;;;17.72;68.81;96597.03;4953400;28;20449;-77
2023/08/03 04:17:02;;;;;;;3.63;1.77;;;17.70;84.90;;;17.64;68.13;96578.56;4932995;29;20539;-78
2023/08/03 04:19:30;;;;;;;4.97;1.37;;;17.80;84.70;;;17.99;67.23;96584.59;4942610;28;20464;-77
2023/08/03 04:21:57;;;;;;;4.43;2.00;;;17.90;84.20;;;17.99;66.53;96603.72;4954440;28;21034;-78
2023/08/03 04:24:24;;;;;;;1.90;1.20;;;17.90;83.50;;;18.08;67.46;96604.69;4938694;29;20478;-79
2023/08/03 04:26:51;;;;;;;4.43;1.90;;;18.00;83.50;;;18.05;65.11;96599.03;4937017;28;20471;-79
2023/08/03 04:29:18;;;;;;;4.10;1.43;;;18.10;82.50;;;17.82;66.62;96588.69;4947181;28;20474;-78
2023/08/03 04:31:48;;;;;;;3.43;1.23;;;18.10;83.10;;;17.88;65.84;96599.53;4937968;28;20816;-78
2023/08/03 04:34:16;;;;;;;3.53;1.30;;;18.10;82.30;;;17.58;65.74;96538.81;4936284;28;20925;-79
2023/08/03 04:36:46;;;;;;;3.47;1.37;;;18.10;81.90;;;17.91;65.62;96599.75;4944089;29;20522;-80
2023/08/03 04:39:13;;;;;;;2.10;1.27;;;18.10;82.10;;;17.99;65.89;96601.00;4922818;29;21143;-77
2023/08/03 04:41:40;;;;;;;4.10;1.27;;;18.20;82.50;;;17.93;64.53;96574.84;4945037;28;20472;-80
2023/08/03 04:44:07;;;;;;;7.10;1.37;;;18.20;81.70;;;18.29;64.05;96609.00;4940427;29;20517;-78
2023/08/03 04:46:35;;;;;;;2.20;1.27;;;18.20;81.70;;;18.18;63.53;96600.16;4943424;29;20466;-79
2023/08/03 04:49:04;;;;;;;3.70;1.13;;;18.30;81.20;;;18.15;64.21;96611.69;4948213;29;20586;-79
2023/08/03 04:51:31;;;;;;;1.37;0.90;;;18.20;81.20;;;17.76;64.54;96578.13;4940993;29;20562;-77
2023/08/03 04:53:59;;;;;;;4.27;1.40;;;18.20;81.30;;;17.94;65.25;96617.44;4944452;29;20978;-79
2023/08/03 04:56:26;;;;;;;2.67;1.33;;;18.10;81.70;;;18.17;63.37;96628.59;4943633;29;20530;-79
2023/08/03 04:58:53;;;;;;;2.50;1.20;;;18.20;80.90;;;18.30;63.86;96632.47;4941282;28;20455;-79
2023/08/03 05:01:20;;;;;;;3.27;1.23;;;18.30;81.30;;;17.90;63.74;96614.53;4946057;29;20471;-78
2023/08/03 05:03:48;;;;;;;2.23;1.13;;;18.20;80.80;;;18.16;65.92;96643.38;4938167;29;20493;-77
2023/08/03 05:06:17;;;;;;;4.07;1.80;;;18.20;82.10;;;18.29;65.65;96653.53;4942126;28;20487;-77
2023/08/03 05:08:44;;;;;;;4.70;1.40;;;18.30;82.20;;;18.28;65.76;96657.41;4946791;29;21256;-78
2023/08/03 05:11:11;;;;;;;3.60;0.90;;;18.20;82.30;;;18.36;64.81;96656.69;4942723;28;20471;-80
2023/08/03 05:13:38;;;;;;;3.50;1.23;;;18.30;81.80;;;18.45;63.71;96661.50;4944065;28;20563;-79
2023/08/03 05:16:05;;;;;;;2.37;0.80;;;18.40;81.40;;;18.37;63.70;96658.31;4933989;28;20481;-81
2023/08/03 05:18:33;;;;;;;2.63;1.23;;;18.40;81.20;;;18.49;64.53;96657.81;4946353;29;20464;-80
2023/08/03 05:21:00;;;;;;;5.17;1.83;;;18.50;81.60;;;17.98;64.87;96604.84;4965187;28;20469;-79
2023/08/03 05:23:28;;;;;;;1.90;1.03;;;18.40;81.60;;;18.42;64.51;96657.41;4937427;29;20525;-78
2023/08/03 05:25:56;;;;;;;1.60;0.77;;;18.40;81.50;;;18.43;63.82;96661.78;4934502;29;20471;-76
2023/08/03 05:28:24;;;;;;;1.60;1.27;;;18.40;81.10;;;18.50;63.33;96653.19;4938441;28;20526;-86
2023/08/03 05:30:53;;;;;;;1.53;1.07;;;18.50;81.00;;;18.32;64.74;96658.41;4946922;29;20462;-83
2023/08/03 05:33:20;;;;;;;3.90;0.90;;;18.40;81.40;;;18.47;63.67;96664.72;4948201;29;20467;-87
2023/08/03 05:35:49;;;;;;;2.60;1.20;;;18.50;80.90;;;19.08;61.49;96645.56;4936773;28;20542;-81
2023/08/03 05:38:16;;;;;;;3.77;1.30;;;18.90;80.40;;;19.34;60.33;96642.31;4932200;29;20477;-85
2023/08/03 05:40:45;;;;;;;2.80;1.20;;;19.30;80.00;;;19.44;60.46;96647.56;4936692;28;20458;-76
2023/08/03 05:43:14;;;;;;;4.07;1.17;;;19.50;79.80;;;20.25;57.30;96647.97;4937533;28;20459;-77
2023/08/03 05:45:44;;;;;;;6.87;1.67;;;20.10;77.90;;;20.88;55.77;96645.25;4940381;29;20534;-78
2023/08/03 05:48:16;;;;;;;2.53;1.20;;;21.10;76.70;;;21.42;53.78;96649.78;4940529;29;20454;-77
2023/08/03 05:50:45;;;;;;;3.83;1.37;;;21.80;74.10;;;21.98;52.46;96654.72;4941674;29;20769;-77
2023/08/03 05:53:14;;;;;;;6.40;2.53;;;22.30;72.90;;;21.03;53.79;96659.69;4936950;28;20462;-75
2023/08/03 05:55:42;;;;;;;3.17;1.70;;;21.80;72.00;;;20.47;55.75;96649.06;4929379;29;20480;-77
2023/08/03 05:58:14;;;;;;;3.20;1.30;;;21.10;72.80;;;19.91;57.54;96632.81;4932519;28;20487;-79
2023/08/03 06:00:43;;;;;;;5.90;1.73;;;20.50;73.90;;;19.59;58.70;96642.88;4935692;28;20853;-78
2023/08/03 06:03:14;;;;;;;2.27;1.37;;;20.00;74.70;;;19.60;59.43;96650.78;4935550;29;20488;-77
2023/08/03 06:05:43;;;;;;;4.73;1.30;;;19.70;75.70;;;19.56;58.83;96647.03;4938860;29;20454;-78
2023/08/03 06:08:18;;;;;;;4.30;1.23;;;19.60;75.50;;;19.30;59.37;96646.75;4950395;29;20485;-75
2023/08/03 06:10:50;;;;;;;3.43;1.00;;;19.40;75.80;;;19.02;60.11;96655.00;4960168;29;20467;-80
2023/08/03 06:13:21;;;;;;;3.03;1.30;;;19.20;76.00;;;18.94;60.21;96659.22;4970746;28;20478;-82
2023/08/03 06:15:49;;;;;;;8.13;1.10;;;19.10;76.10;;;18.66;60.73;96629.13;4957389;29;20486;-81
2023/08/03 06:18:18;;;;;;;3.00;1.40;;;19.00;76.40;;;19.21;59.95;96661.19;4941105;29;20494;-82
2023/08/03 06:20:47;;;;;;;2.20;1.17;;;19.30;76.50;;;19.47;58.13;96652.41;4954384;28;20473;-81
2023/08/03 06:23:19;;;;;;;2.03;0.97;;;19.60;75.50;;;19.70;57.53;96637.97;4940700;29;20465;-80
2023/08/03 06:25:48;;;;;;;3.83;1.20;;;19.80;75.20;;;19.33;58.08;96657.09;4958918;28;20477;-84
2023/08/03 06:28:19;;;;;;;2.90;1.40;;;19.80;74.60;;;19.69;57.43;96653.59;4945522;28;20466;-82
2023/08/03 06:30:47;;;;;;;3.83;1.50;;;19.90;74.80;;;19.17;57.57;96610.09;4932516;29;20896;-81
2023/08/03 06:33:17;;;;;;;2.57;1.00;;;19.80;74.10;;;19.70;57.60;96677.16;4941721;28;21069;-84
2023/08/03 06:35:46;;;;;;;1.50;0.83;;;19.90;74.50;;;19.46;57.63;96683.66;4935139;29;20459;-81
2023/08/03 06:38:17;;;;;;;4.60;1.67;;;19.80;74.00;;;19.40;57.55;96668.47;4942085;28;20485;-80
2023/08/03 06:40:47;;;;;;;4.57;1.43;;;19.70;74.20;;;18.95;59.05;96672.59;4936562;28;21573;-83
2023/08/03 06:43:15;;;;;;;3.00;1.20;;;19.50;74.60;;;19.27;58.15;96692.00;4935890;28;20477;-81
2023/08/03 06:45:45;;;;;;;2.83;0.70;;;19.50;74.20;;;19.18;58.02;96686.41;4939484;29;20470;-83
2023/08/03 06:48:14;;;;;;;3.07;1.10;;;19.50;74.00;;;18.94;58.35;96634.59;4940426;28;20517;-83
2023/08/03 06:50:42;;;;;;;4.17;0.90;;;19.50;74.30;;;19.44;57.41;96705.06;4938318;29;20553;-85
2023/08/03 06:53:09;;;;;;;1.90;1.20;;;19.60;74.00;;;19.44;55.92;96707.81;4944649;29;20885;-79
2023/08/03 06:55:36;;;;;;;5.63;1.17;;;19.70;72.50;;;19.15;56.17;96705.38;4942418;29;20454;-85
2023/08/03 06:58:04;;;;;;;3.73;1.40;;;19.60;72.30;;;19.09;56.31;96707.41;4946519;29;20494;-85
2023/08/03 07:00:31;;;;;;;1.90;1.00;;;19.50;72.40;;;19.27;55.78;96685.72;4950339;29;20462;-81
2023/08/03 07:03:00;;;;;;;3.33;1.03;;;19.60;72.10;;;19.64;55.16;96711.25;4960920;28;20691;-83
2023/08/03 07:05:28;;;;;;;3.63;0.80;;;19.80;71.80;;;19.90;54.23;96713.41;4953215;28;20458;-87
2023/08/03 07:07:55;;;;;;;2.67;1.40;;;20.10;71.20;;;20.13;53.80;96692.38;4943761;29;20470;-86
2023/08/03 07:10:22;;;;;;;1.27;0.67;;;20.30;71.30;;;19.96;53.48;96709.50;4939752;28;20463;-84
2023/08/03 07:12:49;;;;;;;3.53;1.00;;;20.30;70.50;;;19.78;53.49;96717.50;4936839;29;20523;-85
2023/08/03 07:15:18;;;;;;;2.00;0.80;;;20.30;70.00;;;20.00;53.37;96724.19;4942136;29;20502;-87
2023/08/03 07:17:46;;;;;;;2.10;0.90;;;20.30;70.00;;;20.18;52.58;96716.94;4943154;28;20482;-85
2023/08/03 07:20:14;;;;;;;3.17;1.20;;;20.50;69.60;;;20.07;52.86;96726.50;4944216;28;20458;-84
2023/08/03 07:22:42;;;;;;;2.10;0.80;;;20.40;69.30;;;20.29;52.35;96717.50;4935487;28;20994;-80
2023/08/03 07:25:09;;;;;;;4.13;1.10;;;20.50;69.10;;;20.30;52.12;96708.16;4935742;29;20931;-81
2023/08/03 07:27:40;;;;;;;1.67;0.97;;;20.60;68.90;;;20.13;52.61;96710.75;4942238;29;20462;-84
2023/08/03 07:30:09;;;;;;;1.20;0.50;;;20.60;69.00;;;20.44;51.76;96721.78;4939047;28;20469;-82
2023/08/03 07:32:35;;;;;;;3.03;1.00;;;20.70;68.60;;;20.15;52.13;96733.97;4944840;28;20447;-86
2023/08/03 07:35:02;;;;;;;2.20;1.07;;;20.60;68.30;;;20.32;52.10;96730.59;4937566;29;20473;-86
2023/08/03 07:37:31;;;;;;;7.60;1.37;;;20.50;68.60;;;20.40;52.02;96745.50;4942749;28;20478;-85
2023/08/03 07:39:59;;;;;;;3.00;1.10;;;20.60;68.60;;;20.65;51.78;96749.53;4946530;28;20478;-86
2023/08/03 07:42:26;;;;;;;1.70;1.10;;;20.70;68.60;;;20.46;51.82;96751.66;4935258;29;20533;-84
2023/08/03 07:44:55;;;;;;;1.10;0.80;;;20.80;68.30;;;20.22;52.45;96752.75;4964697;28;20458;-82
2023/08/03 07:47:22;;;;;;;2.77;0.50;;;20.60;68.40;;;20.27;52.23;96752.66;4942425;28;20465;-84
2023/08/03 07:49:49;;;;;;;1.57;0.70;;;20.50;68.20;;;20.15;51.88;96739.47;4951213;28;20529;-85
2023/08/03 07:52:16;;;;;;;1.80;0.60;;;20.50;67.90;;;20.30;51.85;96763.00;4940807;29;20447;-83
2023/08/03 07:54:45;;;;;;;2.10;0.60;;;20.60;67.80;;;20.17;52.04;96770.16;4938603;29;20460;-84
2023/08/03 07:57:15;;;;;;;0.67;0.53;;;20.50;67.80;;;20.05;52.60;96769.88;4938235;29;20490;-85
2023/08/03 07:59:43;;;;;;;0.87;0.50;;;20.40;67.90;;;20.14;51.86;96767.22;4944752;29;20466;-85
2023/08/03 08:02:10;;;;;;;2.10;0.50;;;20.40;67.40;;;20.23;51.51;96766.16;4948841;29;20458;-82
2023/08/03 08:04:37;;;;;;;1.00;0.53;;;20.50;67.10;;;20.25;52.17;96768.59;4944518;29;20475;-83
2023/08/03 08:07:06;;;;;;;2.23;0.50;;;20.60;67.60;;;20.25;52.51;96774.09;4952327;29;20499;-81
2023/08/03 08:09:33;;;;;;;2.23;0.80;;;20.60;68.10;;;20.53;52.25;96782.19;4962330;28;20525;-78
2023/08/03 08:12:01;;;;;;;2.60;0.80;;;20.70;68.30;;;20.58;52.53;96787.59;4971710;28;20478;-83
2023/08/03 08:14:29;;;;;;;2.40;0.53;;;20.70;68.50;;;20.44;53.06;96795.06;4962367;29;20458;-85
2023/08/03 08:16:56;;;;;;;2.80;0.70;;;20.70;68.80;;;20.60;52.81;96782.59;4944083;28;20470;-84
2023/08/03 08:19:24;;;;;;;3.70;0.87;;;20.80;68.90;;;20.73;52.44;96786.38;4942387;28;20452;-85
2023/08/03 08:21:51;;;;;;;1.37;0.50;;;21.00;68.40;;;21.12;51.85;96789.56;4951164;29;20458;-83
2023/08/03 08:24:18;;;;;;;3.53;1.00;;;21.30;68.40;;;20.95;52.30;96787.53;4945560;29;20489;-87
2023/08/03 08:26:46;;;;;;;0.70;0.53;;;21.20;68.40;;;21.30;51.42;96773.16;4945934;28;20799;-86
2023/08/03 08:29:14;;;;;;;1.67;0.40;;;21.60;68.40;;;20.85;52.60;96777.66;4937084;29;20824;-82
2023/08/03 08:31:43;;;;;;;2.73;0.50;;;21.30;68.20;;;20.73;53.29;96778.16;4959873;28;20479;-83
2023/08/03 08:34:10;;;;;;;5.33;0.73;;;21.10;68.90;;;20.78;53.30;96785.47;4958299;28;20458;-83
2023/08/03 08:36:37;;;;;;;1.20;0.50;;;21.00;68.90;;;20.99;53.35;96790.47;4944998;28;20455;-82
2023/08/03 08:39:05;;;;;;;1.17;0.50;;;21.00;69.40;;;21.05;51.92;96762.56;4948670;28;20499;-82
2023/08/03 08:41:32;;;;;;;1.10;0.60;;;21.40;68.50;;;20.75;53.38;96794.31;4945297;29;20460;-84
2023/08/03 08:43:59;;;;;;;3.57;0.50;;;21.10;68.70;;;21.61;51.64;96794.31;4945870;28;20466;-83
2023/08/03 08:46:28;;;;;;;0.70;0.53;;;21.50;68.70;;;22.03;49.78;96816.78;4946139;29;20809;-82
2023/08/03 08:48:55;;;;;;;1.27;0.53;;;22.20;67.50;;;21.67;49.67;96793.09;4949008;29;20803;-85
2023/08/03 08:51:23;;;;;;;0.67;0.40;;;22.10;66.50;;;21.09;50.31;96795.69;4950096;29;21146;-86
2023/08/03 08:53:55;;;;;;;1.67;0.50;;;21.60;66.00;;;20.43;51.41;96753.09;4933882;29;20464;-82
2023/08/03 08:56:25;;;;;;;0.60;0.40;;;21.20;66.80;;;20.95;51.97;96821.28;4946848;29;20972;-83
2023/08/03 08:58:53;;;;;;;1.37;0.50;;;21.10;67.40;;;20.83;49.51;96771.63;4952547;28;20521;-83
2023/08/03 09:01:20;;;;;;;1.13;0.40;;;21.40;65.90;;;20.93;50.27;96820.78;4950494;29;20524;-85
2023/08/03 09:03:52;;;;;;;0.43;0.30;;;21.30;65.70;;;20.49;50.37;96827.84;4943290;29;20531;-81
2023/08/03 09:06:21;;;;;;;0.90;0.40;;;21.00;64.90;;;20.46;50.67;96825.72;4953040;29;20479;-82
2023/08/03 09:08:51;;;;;;;1.03;0.93;;;20.90;65.40;;;20.93;49.57;96826.28;4950944;29;20463;-85
2023/08/03 09:11:19;;;;;;;0.70;0.40;;;21.10;65.30;;;20.95;49.79;96831.47;4939197;29;20962;-83
2023/08/03 09:13:49;;;;;;;1.40;0.47;;;21.10;65.20;;;21.07;48.93;96839.94;4952687;28;20458;-86
2023/08/03 09:16:26;;;;;;;1.03;0.60;;;21.30;64.70;;;21.27;48.96;96840.56;4949244;29;20458;-84
2023/08/03 09:18:55;;;;;;;2.30;0.50;;;21.50;64.80;;;21.82;48.20;96837.75;4929830;29;20486;-83
2023/08/03 09:21:22;;;;;;;2.57;0.57;;;21.80;64.70;;;22.32;47.39;96831.09;4953358;29;20464;-85
2023/08/03 09:23:52;;;;;;;0.90;0.40;;;22.30;64.70;;;22.08;47.72;96824.06;4952737;28;21012;-82
2023/08/03 09:26:23;;;;;;;0.90;0.40;;;22.50;64.40;;;22.26;47.02;96837.84;4951682;28;20463;-87
2023/08/03 09:28:51;;;;;;;2.00;0.57;;;22.60;63.90;;;22.06;46.71;96838.16;4950963;28;20518;-80
2023/08/03 09:31:25;;;;;;;0.60;0.30;;;22.40;63.20;;;21.77;46.24;96776.31;4948081;29;20523;-81
2023/08/03 09:33:59;;;;;;;1.10;0.53;;;22.40;62.80;;;21.54;47.36;96833.25;4940196;29;20549;-85
2023/08/03 09:36:27;;;;;;;0.60;0.30;;;22.00;62.60;;;21.33;47.83;96843.97;4946950;29;21003;-84
2023/08/03 09:39:11;;;;;;;2.90;0.50;;;21.80;63.00;;;21.60;47.39;96848.47;4955896;28;20533;-88
2023/08/03 09:41:39;;;;;;;2.30;0.50;;;21.80;63.00;;;21.41;48.28;96845.94;4947347;29;20458;-82
2023/08/03 09:44:08;;;;;;;1.00;0.50;;;21.70;63.20;;;21.44;48.36;96844.50;4938633;29;20467;-81
2023/08/03 09:46:36;;;;;;;1.97;0.70;;;21.80;63.20;;;21.36;47.60;96865.31;4956453;28;20461;-86
2023/08/03 09:49:05;;;;;;;2.43;0.50;;;21.70;62.60;;;21.23;47.83;96845.06;4943383;28;20526;-84
2023/08/03 09:51:35;;;;;;;2.47;0.60;;;21.60;62.30;;;21.58;47.58;96853.47;4955612;28;20463;-83
2023/08/03 09:54:14;;;;;;;1.60;0.50;;;21.70;62.80;;;22.10;46.30;96867.78;4970664;28;20456;-86
2023/08/03 09:56:52;;;;;;;1.27;0.50;;;22.10;62.60;;;22.01;46.83;96863.03;4948131;29;21218;-83
2023/08/03 09:59:25;;;;;;;2.23;0.70;;;22.20;62.60;;;21.83;46.70;96864.91;4950652;28;20504;-80
2023/08/03 10:01:58;;;;;;;1.30;0.60;;;22.10;62.00;;;21.64;46.37;96840.41;4945053;29;20546;-78
2023/08/03 10:04:31;;;;;;;0.73;0.50;;;22.00;61.30;;;21.94;46.13;96869.00;4953934;29;20469;-77
2023/08/03 10:07:03;;;;;;;0.80;0.50;;;22.10;61.70;;;22.10;45.00;96873.28;4959780;28;20463;-78
2023/08/03 10:09:39;;;;;;;1.83;0.53;;;22.40;60.80;;;22.19;45.51;96874.09;4960041;28;20462;-79
2023/08/03 10:12:13;;;;;;;2.60;0.53;;;22.40;60.90;;;22.43;44.16;96861.84;4965324;29;20556;-85
2023/08/03 10:14:42;;;;;;;1.07;0.30;;;22.70;60.50;;;22.24;44.08;96870.38;4955585;29;20471;-82
2023/08/03 10:17:12;;;;;;;1.50;0.40;;;22.50;59.50;;;21.98;44.30;96879.34;4949873;28;20488;-84
2023/08/03 10:19:45;;;;;;;1.60;0.40;;;22.30;59.40;;;21.33;45.29;96816.50;4943280;29;20858;-79
2023/08/03 10:22:13;;;;;;;0.93;0.60;;;22.20;59.80;;;21.56;45.71;96858.47;4943362;29;20576;-85
2023/08/03 10:24:40;;;;;;;1.83;0.70;;;22.10;60.00;;;21.36;45.77;96865.31;4957493;28;20572;-81